Time;durP1;ratioP1;P1;durP2;ratioP2;P2;SDS_P1;SDS_P2;PMS_P1;PMS_P2;Temp;Humidity;BMP_temperature;BMP_pressure;BME280_temperature;BME280_humidity;BME280_pressure;Samples;Min_cycle;Max_cycle;Signal;HPM_P1;HPM_P2
2021/06/13 00:00:18;;;;;;;8.63;5.18;;;;;;;16.72;74.43;98686.88;130115;1093;22940;-67
2021/06/13 00:02:46;;;;;;;7.53;4.40;;;;;;;16.72;74.58;98684.94;130040;1093;22509;-68
2021/06/13 00:05:15;;;;;;;8.13;4.55;;;;;;;16.73;74.63;98680.25;130073;1093;23316;-68
2021/06/13 00:07:44;;;;;;;6.73;4.58;;;;;;;16.72;74.58;98678.63;130010;1092;22590;-68
2021/06/13 00:10:14;;;;;;;9.25;5.13;;;;;;;16.74;74.68;98676.34;130108;1093;22550;-68
2021/06/13 00:12:42;;;;;;;14.43;5.30;;;;;;;16.73;74.88;98670.06;129816;1092;22568;-68
2021/06/13 00:15:16;;;;;;;8.10;4.88;;;;;;;16.74;74.83;98666.15;130035;1093;22688;-67
2021/06/13 00:17:45;;;;;;;8.48;4.35;;;;;;;16.75;74.73;98665.02;130053;1092;22546;-67
2021/06/13 00:20:18;;;;;;;7.88;3.98;;;;;;;16.75;74.60;98655.95;130093;1092;23178;-67
2021/06/13 00:22:49;;;;;;;11.98;5.08;;;;;;;16.74;74.59;98646.08;130088;1093;22687;-68
2021/06/13 00:25:17;;;;;;;8.63;4.85;;;;;;;16.72;74.58;98648.38;130144;1093;22558;-67
2021/06/13 00:27:47;;;;;;;16.30;4.38;;;;;;;16.69;74.43;98646.25;129841;1093;22532;-67
2021/06/13 00:30:19;;;;;;;17.18;5.28;;;;;;;16.66;74.61;98646.88;130045;1093;22632;-68
2021/06/13 00:32:47;;;;;;;7.98;5.05;;;;;;;16.64;74.40;98647.20;130050;1093;23191;-68
2021/06/13 00:35:17;;;;;;;6.13;5.13;;;;;;;16.59;74.40;98642.61;130102;1093;22541;-67
2021/06/13 00:37:46;;;;;;;7.58;4.95;;;;;;;16.59;74.46;98639.08;130051;1093;22686;-67
2021/06/13 00:40:19;;;;;;;7.38;4.15;;;;;;;16.54;74.61;98636.47;129869;1093;22524;-67
2021/06/13 00:42:48;;;;;;;12.28;4.35;;;;;;;16.46;74.20;98631.73;130099;1092;23066;-68
2021/06/13 00:45:17;;;;;;;11.85;5.10;;;;;;;16.40;74.16;98635.77;129824;1093;22582;-67
2021/06/13 00:47:46;;;;;;;8.68;4.63;;;;;;;16.31;74.31;98627.47;130090;1092;23091;-67
2021/06/13 00:50:26;;;;;;;6.00;4.90;;;;;;;16.24;74.30;98629.88;130114;1092;22616;-68
2021/06/13 00:52:57;;;;;;;5.13;4.33;;;;;;;16.15;74.30;98626.30;129808;1093;22690;-67
2021/06/13 00:55:26;;;;;;;5.45;4.23;;;;;;;16.06;74.11;98619.92;130100;1093;22575;-68
2021/06/13 00:57:55;;;;;;;9.93;4.68;;;;;;;15.98;74.13;98616.02;129818;1092;23054;-67
2021/06/13 01:00:24;;;;;;;5.05;4.08;;;;;;;15.90;74.40;98619.52;130086;1093;22670;-68
2021/06/13 01:02:53;;;;;;;5.90;4.48;;;;;;;15.82;74.57;98612.86;130068;1092;22536;-67
2021/06/13 01:05:23;;;;;;;5.90;4.07;;;;;;;15.76;74.87;98608.61;130116;1093;22557;-67
2021/06/13 01:08:07;;;;;;;6.78;4.35;;;;;;;15.69;74.69;98607.45;129864;1093;22553;-67
2021/06/13 01:10:47;;;;;;;6.33;4.38;;;;;;;15.63;74.91;98604.02;130095;1093;22542;-67
2021/06/13 01:13:44;;;;;;;6.80;4.28;;;;;;;15.56;74.94;98600.91;129864;1092;22642;-67
2021/06/13 01:16:29;;;;;;;5.83;4.78;;;;;;;15.49;75.32;98597.75;129890;1093;23081;-68
2021/06/13 01:19:47;;;;;;;5.63;4.40;;;;;;;15.44;75.42;98595.94;129802;1093;22517;-67
2021/06/13 01:22:41;;;;;;;9.00;5.88;;;;;;;15.39;76.01;98592.52;129296;1098;22597;-67
2021/06/13 01:25:18;;;;;;;6.45;5.75;;;;;;;15.32;75.84;98598.44;129298;1100;22595;-59
2021/06/13 01:28:12;;;;;;;9.60;5.95;;;;;;;15.27;75.77;98589.53;129314;1100;22656;-67
2021/06/13 01:30:40;;;;;;;14.45;10.90;;;;;;;15.18;76.09;98590.26;129129;1100;22639;-68
2021/06/13 01:33:11;;;;;;;23.48;10.15;;;;;;;15.11;76.12;98589.89;129309;1100;22667;-67
2021/06/13 01:35:41;;;;;;;13.53;8.80;;;;;;;15.05;76.27;98585.63;129305;1100;23060;-66
2021/06/13 01:38:11;;;;;;;12.30;7.50;;;;;;;15.02;76.41;98583.50;128702;1098;22667;-67
2021/06/13 01:40:41;;;;;;;12.93;6.05;;;;;;;14.99;76.56;98575.92;129210;1100;23175;-67
2021/06/13 01:43:12;;;;;;;7.35;5.90;;;;;;;14.98;76.76;98576.22;128726;1099;22558;-67
2021/06/13 01:45:41;;;;;;;7.45;5.05;;;;;;;14.97;76.83;98577.34;129304;1100;22590;-67
2021/06/13 01:48:11;;;;;;;7.58;5.05;;;;;;;14.97;76.99;98589.13;129243;1098;22604;-67
2021/06/13 01:50:40;;;;;;;7.10;5.48;;;;;;;14.99;77.26;98580.59;129127;1100;22606;-67
2021/06/13 01:53:10;;;;;;;8.20;5.40;;;;;;;15.03;77.63;98582.38;128715;1100;23381;-67
2021/06/13 01:55:40;;;;;;;6.55;5.20;;;;;;;15.07;77.84;98572.42;129070;1100;22607;-66
2021/06/13 01:58:09;;;;;;;10.90;5.13;;;;;;;15.11;78.03;98567.94;129344;1096;22552;-67
2021/06/13 02:00:48;;;;;;;7.98;5.28;;;;;;;15.17;78.15;98571.36;129871;1093;22567;-67
2021/06/13 02:03:18;;;;;;;8.98;5.10;;;;;;;15.23;78.23;98566.56;129865;1093;22549;-66
2021/06/13 02:05:53;;;;;;;15.03;6.25;;;;;;;15.27;78.26;98568.39;129943;1092;22806;-66
2021/06/13 02:08:24;;;;;;;7.08;4.88;;;;;;;15.32;78.24;98556.45;129923;1093;22527;-66
2021/06/13 02:11:04;;;;;;;8.08;5.73;;;;;;;15.38;78.06;98563.45;129838;1093;23219;-67
2021/06/13 02:13:33;;;;;;;7.08;5.30;;;;;;;15.43;78.09;98549.61;130105;1092;22665;-66
2021/06/13 02:16:05;;;;;;;7.18;5.78;;;;;;;15.47;78.14;98548.65;129831;1093;22565;-66
2021/06/13 02:18:34;;;;;;;8.98;5.68;;;;;;;15.52;78.21;98544.97;129921;1092;22546;-67
2021/06/13 02:21:05;;;;;;;6.28;5.60;;;;;;;15.57;77.97;98542.13;129825;1093;22508;-67
2021/06/13 02:23:34;;;;;;;8.63;5.75;;;;;;;15.62;78.19;98539.23;130081;1091;22609;-67
2021/06/13 02:26:02;;;;;;;6.90;5.55;;;;;;;15.66;77.91;98542.98;130085;1092;22650;-67
2021/06/13 02:28:38;;;;;;;6.95;5.48;;;;;;;15.72;78.17;98543.67;129815;1093;22573;-66
2021/06/13 02:31:08;;;;;;;6.70;5.70;;;;;;;15.77;78.04;98543.52;129857;1093;22489;-67
2021/06/13 02:33:38;;;;;;;7.63;5.48;;;;;;;15.83;77.72;98539.52;129829;1092;23620;-67
2021/06/13 02:36:08;;;;;;;7.08;5.83;;;;;;;15.90;77.81;98537.91;130103;1093;22692;-67
2021/06/13 02:38:47;;;;;;;8.85;5.53;;;;;;;15.97;77.81;98531.17;129859;1093;22531;-67
2021/06/13 02:41:16;;;;;;;6.73;5.80;;;;;;;16.04;77.63;98529.56;130113;1093;22629;-68
2021/06/13 02:43:45;;;;;;;7.30;5.65;;;;;;;16.09;77.34;98534.93;130082;1093;23131;-67
2021/06/13 02:46:17;;;;;;;10.28;6.15;;;;;;;16.15;77.28;98530.92;130102;1093;23490;-68
2021/06/13 02:48:46;;;;;;;9.60;6.65;;;;;;;16.20;76.94;98530.75;129939;1092;22572;-67
2021/06/13 02:51:15;;;;;;;8.43;5.90;;;;;;;16.26;76.77;98523.99;130011;1092;22566;-68
2021/06/13 02:53:45;;;;;;;15.15;5.90;;;;;;;16.33;76.70;98522.70;129813;1092;22502;-68
2021/06/13 02:56:55;;;;;;;9.85;6.15;;;;;;;16.38;76.67;98522.55;130030;1093;22629;-68
2021/06/13 02:59:47;;;;;;;8.95;5.65;;;;;;;16.44;76.24;98524.03;130014;1093;22655;-68
2021/06/13 03:02:27;;;;;;;7.75;5.38;;;;;;;16.49;76.37;98516.42;129885;1092;22542;-68
2021/06/13 03:05:01;;;;;;;8.33;5.60;;;;;;;16.55;76.24;98517.91;129861;1093;22900;-68
2021/06/13 03:07:30;;;;;;;15.35;5.65;;;;;;;16.61;76.07;98521.29;130075;1093;22523;-68
2021/06/13 03:10:00;;;;;;;9.43;5.88;;;;;;;16.68;75.96;98515.36;129824;1093;22595;-68
2021/06/13 03:12:29;;;;;;;9.63;5.35;;;;;;;16.72;75.94;98511.64;129856;1092;22539;-68
2021/06/13 03:14:58;;;;;;;6.30;5.35;;;;;;;16.78;75.60;98515.03;129826;1093;22664;-68
2021/06/13 03:17:28;;;;;;;6.23;5.28;;;;;;;16.84;75.47;98516.50;130038;1093;23442;-69
2021/06/13 03:19:59;;;;;;;8.35;6.08;;;;;;;16.89;75.24;98519.88;129880;1093;22596;-68
2021/06/13 03:22:27;;;;;;;10.83;7.50;;;;;;;16.93;75.12;98526.36;129852;1093;22511;-67
2021/06/13 03:24:57;;;;;;;12.80;6.83;;;;;;;16.98;74.86;98528.16;129835;1093;22664;-67
2021/06/13 03:27:27;;;;;;;8.95;6.83;;;;;;;17.04;74.85;98526.03;130093;1093;22508;-69
2021/06/13 03:29:56;;;;;;;13.35;7.65;;;;;;;17.08;74.84;98527.81;129843;1093;22626;-67
2021/06/13 03:32:25;;;;;;;9.40;6.60;;;;;;;17.13;74.75;98530.41;129878;1093;22630;-67
2021/06/13 03:34:53;;;;;;;7.05;5.95;;;;;;;17.19;74.66;98528.28;129838;1093;22794;-67
2021/06/13 03:37:22;;;;;;;7.93;5.30;;;;;;;17.25;74.66;98527.80;125958;1093;22803;-67
2021/06/13 03:39:52;;;;;;;9.65;6.55;;;;;;;17.29;74.37;98528.78;129825;1093;22574;-67
2021/06/13 03:42:20;;;;;;;12.13;6.28;;;;;;;17.35;74.44;98525.83;129895;1093;22515;-67
2021/06/13 03:44:52;;;;;;;9.15;5.88;;;;;;;17.40;74.28;98522.92;129964;1093;22633;-68
2021/06/13 03:47:21;;;;;;;8.15;5.50;;;;;;;17.44;74.21;98521.95;129834;1093;22550;-68
2021/06/13 03:49:49;;;;;;;8.20;5.30;;;;;;;17.53;74.07;98527.42;130033;1093;22635;-67
2021/06/13 03:52:18;;;;;;;6.43;5.63;;;;;;;17.59;73.89;98520.62;130086;1093;22561;-68
2021/06/13 03:54:47;;;;;;;6.55;4.90;;;;;;;17.66;73.78;98518.18;130065;1092;22619;-68
2021/06/13 03:57:15;;;;;;;8.90;5.43;;;;;;;17.72;73.72;98519.63;130106;1093;22682;-68
2021/06/13 03:59:44;;;;;;;13.50;6.43;;;;;;;17.77;73.40;98513.92;129873;1093;22546;-67
2021/06/13 04:02:12;;;;;;;8.15;5.05;;;;;;;17.83;73.23;98518.13;129857;1093;22510;-67
2021/06/13 04:04:43;;;;;;;7.38;5.28;;;;;;;17.89;72.99;98519.55;130096;1092;22519;-67
2021/06/13 04:07:12;;;;;;;9.60;6.15;;;;;;;17.96;72.92;98519.86;130018;1092;23453;-68
2021/06/13 04:09:41;;;;;;;10.03;5.13;;;;;;;18.03;72.89;98513.84;129876;1092;22666;-68
2021/06/13 04:12:18;;;;;;;11.65;5.50;;;;;;;18.12;72.44;98516.54;130072;1092;22543;-65
2021/06/13 04:14:48;;;;;;;17.55;5.28;;;;;;;18.19;72.37;98501.08;130138;1092;22531;-66
2021/06/13 04:17:20;;;;;;;6.43;5.40;;;;;;;18.26;71.85;98503.33;129835;1093;22544;-68
2021/06/13 04:19:48;;;;;;;7.10;4.50;;;;;;;18.34;71.84;98502.45;130045;1092;22722;-68
2021/06/13 04:22:18;;;;;;;5.40;4.63;;;;;;;18.41;71.78;98497.23;129980;1092;22525;-68
2021/06/13 04:24:47;;;;;;;6.00;4.90;;;;;;;18.47;71.28;98498.64;130112;1093;22645;-68
2021/06/13 04:27:21;;;;;;;9.15;4.78;;;;;;;18.54;71.24;98507.20;129829;1093;22601;-68
2021/06/13 04:29:51;;;;;;;6.58;5.40;;;;;;;18.60;70.85;98500.39;130115;1093;22955;-68
2021/06/13 04:32:20;;;;;;;7.78;5.13;;;;;;;18.65;70.84;98502.13;129957;1092;22556;-68
2021/06/13 04:34:48;;;;;;;11.18;5.08;;;;;;;18.70;70.78;98504.69;130097;1093;23354;-68
2021/06/13 04:37:17;;;;;;;6.63;5.63;;;;;;;18.74;70.53;98499.31;129848;1092;22603;-68
2021/06/13 04:39:46;;;;;;;12.65;5.65;;;;;;;18.77;70.23;98504.95;130098;1092;22606;-68
2021/06/13 04:42:14;;;;;;;6.68;5.00;;;;;;;18.81;70.45;98489.34;130132;1093;22570;-68
2021/06/13 04:44:43;;;;;;;7.65;4.85;;;;;;;18.85;70.32;98495.00;130125;1093;22623;-68
2021/06/13 04:47:11;;;;;;;8.43;4.60;;;;;;;18.90;70.33;98503.86;129996;1093;22619;-68
2021/06/13 04:49:50;;;;;;;7.23;4.95;;;;;;;18.95;70.21;98500.09;130112;1093;22526;-68
2021/06/13 04:52:19;;;;;;;10.45;4.43;;;;;;;19.02;69.79;98500.38;130032;1092;22622;-68
2021/06/13 04:54:47;;;;;;;7.25;4.70;;;;;;;19.09;69.99;98500.63;130120;1092;23147;-68
2021/06/13 04:57:35;;;;;;;9.40;5.43;;;;;;;19.15;69.61;98493.76;130031;1093;23549;-68
2021/06/13 05:00:04;;;;;;;7.33;5.03;;;;;;;19.23;69.62;98498.38;130092;1093;22533;-66
2021/06/13 05:02:39;;;;;;;6.30;5.18;;;;;;;19.32;69.74;98492.78;129857;1092;23426;-67
2021/06/13 05:05:10;;;;;;;6.30;4.63;;;;;;;19.38;68.89;98489.45;129867;1093;23053;-58
2021/06/13 05:07:39;;;;;;;11.20;5.00;;;;;;;19.49;68.48;98494.53;129971;1093;22491;-67
2021/06/13 05:10:09;;;;;;;7.33;4.58;;;;;;;19.58;68.55;98492.53;130099;1093;22524;-67
2021/06/13 05:12:51;;;;;;;5.58;4.43;;;;;;;19.70;67.72;98492.55;129891;1093;22542;-67
2021/06/13 05:15:21;;;;;;;6.78;4.65;;;;;;;19.85;67.53;98491.07;129905;1093;22610;-67
2021/06/13 05:17:49;;;;;;;6.10;3.93;;;;;;;20.01;67.05;98490.05;129889;1092;22563;-67
2021/06/13 05:20:18;;;;;;;6.35;4.05;;;;;;;20.20;66.69;98483.92;130067;1093;22560;-67
2021/06/13 05:22:56;;;;;;;8.75;4.50;;;;;;;20.36;65.48;98490.39;130124;1093;22698;-67
2021/06/13 05:25:32;;;;;;;4.58;3.85;;;;;;;20.55;64.77;98486.23;130024;1093;22538;-68
2021/06/13 05:28:01;;;;;;;6.48;4.03;;;;;;;20.71;64.47;98479.62;129996;1093;22662;-67
2021/06/13 05:30:32;;;;;;;4.30;3.88;;;;;;;20.89;63.48;98479.34;130069;1093;23419;-67
2021/06/13 05:33:01;;;;;;;8.43;3.65;;;;;;;21.07;62.86;98475.91;130089;1093;22664;-67
2021/06/13 05:35:30;;;;;;;6.58;4.10;;;;;;;21.25;62.39;98484.75;129831;1093;22546;-67
2021/06/13 05:37:59;;;;;;;9.45;3.75;;;;;;;21.43;61.84;98471.39;130030;1093;22677;-67
2021/06/13 05:40:28;;;;;;;8.13;3.80;;;;;;;21.57;61.19;98465.41;130085;1093;22508;-67
2021/06/13 05:42:57;;;;;;;5.53;3.38;;;;;;;21.71;60.88;98466.59;130111;1091;24117;-67
2021/06/13 05:45:27;;;;;;;5.65;4.03;;;;;;;21.82;60.25;98472.39;130060;1093;22614;-68
2021/06/13 05:47:56;;;;;;;3.88;3.48;;;;;;;21.88;59.80;98466.23;129863;1093;22478;-68
2021/06/13 05:50:25;;;;;;;5.70;3.30;;;;;;;21.92;59.18;98469.11;129827;1093;22536;-68
2021/06/13 05:52:59;;;;;;;5.18;3.30;;;;;;;21.95;58.78;98460.05;130114;1092;22615;-68
2021/06/13 05:55:29;;;;;;;4.08;3.58;;;;;;;21.97;58.70;98463.27;130095;1093;22549;-67
2021/06/13 05:57:58;;;;;;;5.58;3.55;;;;;;;21.99;58.72;98462.91;129873;1092;22537;-68
2021/06/13 06:00:32;;;;;;;7.05;3.20;;;;;;;21.99;58.83;98468.45;130010;1092;23433;-68
2021/06/13 06:03:01;;;;;;;5.85;3.43;;;;;;;22.00;58.50;98478.42;130142;1092;22636;-68
2021/06/13 06:05:31;;;;;;;6.10;3.93;;;;;;;22.01;58.42;98475.30;130078;1092;22520;-68
2021/06/13 06:08:01;;;;;;;7.08;3.55;;;;;;;22.02;57.90;98474.13;130089;1093;22656;-67
2021/06/13 06:10:30;;;;;;;5.45;3.13;;;;;;;22.03;57.88;98480.48;130092;1093;23192;-67
2021/06/13 06:13:01;;;;;;;6.70;3.23;;;;;;;22.03;57.79;98480.48;129851;1093;22763;-68
2021/06/13 06:15:33;;;;;;;10.50;4.53;;;;;;;22.04;57.94;98482.91;129955;1092;22585;-68
2021/06/13 06:18:02;;;;;;;3.98;3.30;;;;;;;22.06;57.97;98480.58;129868;1092;23556;-67
2021/06/13 06:20:31;;;;;;;4.93;3.50;;;;;;;22.07;57.79;98484.97;130064;1092;22601;-67
2021/06/13 06:23:00;;;;;;;6.58;3.20;;;;;;;22.08;58.10;98481.00;129894;1093;22508;-68
2021/06/13 06:25:30;;;;;;;3.98;3.35;;;;;;;22.09;58.13;98479.84;129871;1093;22517;-68
2021/06/13 06:27:58;;;;;;;6.23;3.90;;;;;;;22.13;58.37;98483.51;130066;1092;22524;-69
2021/06/13 06:30:27;;;;;;;3.60;3.20;;;;;;;22.13;58.45;98479.93;129848;1093;22539;-68
2021/06/13 06:32:56;;;;;;;6.30;3.75;;;;;;;22.16;58.44;98479.22;129806;1093;23092;-68
2021/06/13 06:35:26;;;;;;;4.10;3.15;;;;;;;22.17;57.88;98484.41;130061;1092;22500;-69
2021/06/13 06:37:54;;;;;;;5.63;3.55;;;;;;;22.18;58.30;98476.89;130056;1093;22658;-69
2021/06/13 06:40:23;;;;;;;3.93;3.28;;;;;;;22.19;58.13;98482.08;129871;1093;22543;-68
2021/06/13 06:42:53;;;;;;;3.95;3.20;;;;;;;22.21;57.34;98479.76;130033;1092;22642;-68
2021/06/13 06:45:23;;;;;;;7.08;3.70;;;;;;;22.24;57.80;98489.31;129625;1093;22536;-67
2021/06/13 06:47:51;;;;;;;5.10;2.90;;;;;;;22.25;57.88;98479.82;125394;1093;22828;-67
2021/06/13 06:50:21;;;;;;;5.03;3.68;;;;;;;22.28;57.90;98486.63;125381;1092;22930;-67
2021/06/13 06:52:49;;;;;;;6.23;3.35;;;;;;;22.30;58.22;98492.63;129881;1093;22569;-68
2021/06/13 06:55:18;;;;;;;4.18;3.68;;;;;;;22.31;58.13;98488.69;130089;1093;22541;-68
2021/06/13 06:57:46;;;;;;;12.08;4.05;;;;;;;22.33;58.37;98489.13;130019;1092;22732;-68
2021/06/13 07:00:19;;;;;;;11.28;4.65;;;;;;;22.36;57.76;98494.74;130088;1092;22619;-69
2021/06/13 07:02:47;;;;;;;5.30;4.10;;;;;;;22.36;57.55;98494.74;129878;1092;23181;-69
2021/06/13 07:05:17;;;;;;;10.65;4.13;;;;;;;22.36;57.85;98491.20;130094;1093;22672;-69
2021/06/13 07:07:51;;;;;;;5.78;4.13;;;;;;;22.38;57.74;98483.28;129791;1093;22512;-69
2021/06/13 07:10:20;;;;;;;7.88;4.43;;;;;;;22.38;58.00;98492.41;130110;1092;22521;-69
2021/06/13 07:12:51;;;;;;;5.95;3.95;;;;;;;22.42;58.49;98486.95;130051;1093;22598;-68
2021/06/13 07:15:20;;;;;;;10.05;4.48;;;;;;;22.43;58.57;98483.82;130137;1093;22536;-68
2021/06/13 07:17:53;;;;;;;10.48;4.60;;;;;;;22.44;58.23;98488.21;129806;1092;23176;-68
2021/06/13 07:20:21;;;;;;;8.58;4.48;;;;;;;22.42;58.20;98484.98;130143;1093;22541;-68
2021/06/13 07:22:50;;;;;;;7.03;4.30;;;;;;;22.40;58.18;98486.51;130034;1092;23527;-68
2021/06/13 07:25:19;;;;;;;11.60;4.43;;;;;;;22.39;58.28;98490.45;130066;1092;24083;-68
2021/06/13 07:27:47;;;;;;;10.15;4.53;;;;;;;22.41;58.23;98499.22;130078;1093;22582;-68
2021/06/13 07:31:31;;;;;;;8.45;4.38;;;;;;;22.41;57.85;98496.45;125300;1093;22860;-68
2021/06/13 07:33:59;;;;;;;4.65;4.15;;;;;;;22.41;57.91;98491.70;125127;1093;22837;-67
2021/06/13 07:36:29;;;;;;;5.03;3.93;;;;;;;22.43;58.19;98499.67;125245;1092;22799;-67
2021/06/13 07:38:58;;;;;;;6.73;4.60;;;;;;;22.44;57.83;98495.73;129927;1093;22565;-67
2021/06/13 07:41:26;;;;;;;8.03;4.83;;;;;;;22.43;58.00;98489.38;130063;1093;23443;-68
2021/06/13 07:43:54;;;;;;;7.98;4.35;;;;;;;22.43;58.65;98489.38;129974;1092;22560;-68
2021/06/13 07:46:23;;;;;;;16.98;5.23;;;;;;;22.44;58.88;98502.09;130088;1093;23518;-68
2021/06/13 07:48:52;;;;;;;6.65;4.08;;;;;;;22.44;58.48;98504.86;129820;1092;22518;-67
2021/06/13 07:51:21;;;;;;;6.33;4.45;;;;;;;22.43;57.84;98503.25;129861;1093;22562;-68
2021/06/13 07:53:49;;;;;;;5.10;4.48;;;;;;;22.40;57.66;98508.71;129967;1092;22568;-68
2021/06/13 07:56:17;;;;;;;7.75;4.45;;;;;;;22.35;58.34;98506.23;129990;1092;22532;-67
2021/06/13 07:58:46;;;;;;;9.40;4.48;;;;;;;22.31;58.45;98505.34;130054;1092;22527;-68
2021/06/13 08:01:15;;;;;;;6.90;4.88;;;;;;;22.31;58.54;98497.02;129967;1092;22671;-68
2021/06/13 08:03:44;;;;;;;6.25;4.90;;;;;;;22.32;58.83;98506.95;129871;1092;22537;-67
2021/06/13 08:06:14;;;;;;;6.90;5.13;;;;;;;22.36;60.12;98503.07;130007;1092;22551;-68
2021/06/13 08:08:43;;;;;;;5.98;4.50;;;;;;;22.42;59.00;98509.16;129878;1092;22626;-68
2021/06/13 08:11:12;;;;;;;8.90;4.90;;;;;;;22.45;57.89;98509.25;129816;1092;23657;-68
2021/06/13 08:13:43;;;;;;;6.48;5.00;;;;;;;22.47;58.29;98504.15;129905;1093;22491;-68
2021/06/13 08:16:14;;;;;;;13.00;5.67;;;;;;;22.49;57.93;98506.56;127919;1093;22792;-67
2021/06/13 08:18:44;;;;;;;7.15;4.95;;;;;;;22.50;57.08;98510.95;129855;1092;23333;-67
2021/06/13 08:21:13;;;;;;;6.10;4.85;;;;;;;22.48;57.50;98510.50;130027;1093;22544;-68
2021/06/13 08:23:41;;;;;;;10.88;4.63;;;;;;;22.46;57.58;98512.83;129837;1093;23387;-68
2021/06/13 08:26:10;;;;;;;7.13;4.95;;;;;;;22.45;57.85;98509.25;130042;1093;22704;-68
2021/06/13 08:28:38;;;;;;;5.80;5.13;;;;;;;22.42;58.07;98498.86;130038;1093;22633;-68
2021/06/13 08:31:08;;;;;;;5.03;4.60;;;;;;;22.40;57.44;98500.39;129932;1092;22584;-68
2021/06/13 08:33:37;;;;;;;5.15;4.60;;;;;;;22.36;57.51;98503.07;130017;1093;23151;-68
2021/06/13 08:36:07;;;;;;;7.18;5.13;;;;;;;22.34;58.14;98507.40;130022;1093;22550;-67
2021/06/13 08:38:35;;;;;;;8.68;4.88;;;;;;;22.32;58.53;98506.95;129997;1093;23439;-68
2021/06/13 08:41:04;;;;;;;12.83;5.28;;;;;;;22.30;58.41;98512.05;129812;1093;22609;-69
2021/06/13 08:43:33;;;;;;;8.85;5.18;;;;;;;22.25;58.06;98524.22;129881;1093;22504;-68
2021/06/13 08:46:02;;;;;;;10.15;5.95;;;;;;;22.17;58.60;98512.16;129988;1093;22571;-68
2021/06/13 08:48:31;;;;;;;14.15;6.55;;;;;;;22.05;59.75;98523.35;129812;1092;22631;-67
2021/06/13 08:51:01;;;;;;;12.60;5.93;;;;;;;21.95;60.83;98536.89;129853;1093;22523;-67
2021/06/13 08:53:29;;;;;;;8.38;5.88;;;;;;;21.80;62.39;98535.72;129819;1093;22569;-67
2021/06/13 08:55:58;;;;;;;10.50;6.18;;;;;;;21.65;63.27;98539.27;129857;1092;22511;-67
2021/06/13 08:58:27;;;;;;;7.73;6.30;;;;;;;21.51;64.50;98539.70;130001;1093;23415;-67
2021/06/13 09:00:56;;;;;;;8.90;6.85;;;;;;;21.37;65.54;98551.19;129887;1093;22573;-67
2021/06/13 09:03:25;;;;;;;6.73;5.78;;;;;;;21.24;66.11;98546.86;129831;1093;22571;-67
2021/06/13 09:05:54;;;;;;;7.03;6.15;;;;;;;21.13;66.46;98552.06;129827;1093;22576;-68
2021/06/13 09:08:34;;;;;;;6.75;5.90;;;;;;;21.07;66.94;98544.34;129827;1092;22561;-67
2021/06/13 09:11:05;;;;;;;11.65;6.20;;;;;;;20.99;67.34;98542.53;129860;1093;23121;-67
2021/06/13 09:13:37;;;;;;;7.20;6.23;;;;;;;20.94;68.41;98538.03;129840;1093;22539;-67
2021/06/13 09:16:07;;;;;;;7.30;6.60;;;;;;;20.95;68.68;98525.80;129987;1093;22578;-67
2021/06/13 09:18:42;;;;;;;10.40;6.23;;;;;;;20.97;68.74;98529.03;129975;1093;22529;-67
2021/06/13 09:21:20;;;;;;;6.97;5.97;;;;;;;21.00;67.33;98541.38;130011;1093;22526;-67
2021/06/13 09:23:49;;;;;;;6.55;5.60;;;;;;;21.01;66.85;98540.22;129853;1093;22534;-67
2021/06/13 09:26:19;;;;;;;6.90;5.93;;;;;;;21.04;66.24;98532.03;130100;1093;22617;-67
2021/06/13 09:28:52;;;;;;;6.20;5.60;;;;;;;21.11;66.54;98528.64;129789;1093;22544;-67
2021/06/13 09:31:25;;;;;;;8.15;6.03;;;;;;;21.18;66.42;98526.09;130084;1093;22670;-67
2021/06/13 09:33:55;;;;;;;7.20;6.13;;;;;;;21.25;66.53;98520.77;129807;1093;22553;-66
2021/06/13 09:36:31;;;;;;;5.33;4.70;;;;;;;21.34;66.08;98528.95;130004;1093;22746;-66
2021/06/13 09:39:04;;;;;;;5.00;4.23;;;;;;;21.40;65.83;98524.74;130048;1093;22659;-66
2021/06/13 09:41:39;;;;;;;4.55;4.15;;;;;;;21.46;64.80;98524.14;129971;1093;22597;-66
2021/06/13 09:44:12;;;;;;;4.80;4.38;;;;;;;21.51;64.09;98531.38;129856;1093;23357;-67
2021/06/13 09:46:46;;;;;;;7.25;4.53;;;;;;;21.52;64.09;98528.25;130045;1093;22973;-67
2021/06/13 09:49:16;;;;;;;4.03;3.35;;;;;;;21.55;63.37;98537.83;129988;1092;22552;-66
2021/06/13 09:51:49;;;;;;;5.55;3.93;;;;;;;21.55;62.51;98548.11;130061;1093;22660;-67
2021/06/13 09:54:27;;;;;;;6.60;3.55;;;;;;;21.45;62.33;98539.16;129842;1093;23663;-67
2021/06/13 09:56:59;;;;;;;4.68;3.70;;;;;;;21.34;62.49;98549.15;130026;1093;22623;-67
2021/06/13 09:59:29;;;;;;;4.35;3.48;;;;;;;21.26;62.67;98558.40;129834;1092;22539;-68
2021/06/13 10:02:03;;;;;;;6.90;3.10;;;;;;;21.18;62.50;98562.91;129861;1093;23265;-68
2021/06/13 10:04:33;;;;;;;3.80;2.13;;;;;;;21.08;61.78;98559.80;129787;1093;22523;-68
2021/06/13 10:07:17;;;;;;;4.83;1.85;;;;;;;20.94;61.29;98559.38;129976;1093;23123;-68
2021/06/13 10:09:50;;;;;;;3.35;2.03;;;;;;;20.75;61.70;98560.83;129967;1093;22669;-68
2021/06/13 10:12:20;;;;;;;2.20;2.00;;;;;;;20.63;61.63;98546.97;129852;1093;23264;-67
2021/06/13 10:14:50;;;;;;;2.93;1.93;;;;;;;20.54;61.78;98562.91;130020;1093;22547;-67
2021/06/13 10:17:30;;;;;;;1.73;1.63;;;;;;;20.48;61.96;98566.27;129844;1092;23163;-67
2021/06/13 10:19:59;;;;;;;2.80;1.68;;;;;;;20.41;62.56;98564.88;129809;1092;22609;-67
2021/06/13 10:22:28;;;;;;;4.10;1.58;;;;;;;20.38;62.34;98564.75;129837;1093;22568;-67
2021/06/13 10:24:57;;;;;;;4.58;1.53;;;;;;;20.35;61.99;98563.45;129768;1092;22709;-67
2021/06/13 10:27:26;;;;;;;1.65;1.50;;;;;;;20.30;60.43;98560.13;129872;1092;22645;-67
2021/06/13 10:29:56;;;;;;;2.38;1.38;;;;;;;20.18;60.21;98547.10;129872;1092;22552;-67
2021/06/13 10:32:25;;;;;;;1.55;1.45;;;;;;;20.05;61.38;98543.49;129821;1093;22546;-67
2021/06/13 10:34:55;;;;;;;2.05;1.15;;;;;;;20.01;61.46;98530.72;129896;1093;23373;-67
2021/06/13 10:37:25;;;;;;;1.20;1.05;;;;;;;20.00;61.72;98518.85;129957;1092;22545;-67
2021/06/13 10:39:55;;;;;;;3.48;1.13;;;;;;;20.03;61.52;98526.46;129988;1093;22659;-67
2021/06/13 10:42:24;;;;;;;6.33;1.20;;;;;;;20.05;61.34;98542.72;129832;1093;22550;-68
2021/06/13 10:44:56;;;;;;;2.53;1.50;;;;;;;19.99;60.34;98557.91;130040;1093;23396;-67
2021/06/13 10:47:26;;;;;;;7.85;2.25;;;;;;;19.91;60.83;98587.25;129815;1093;22556;-68
2021/06/13 10:49:56;;;;;;;3.13;1.90;;;;;;;19.88;60.94;98595.44;129882;1092;22518;-68
2021/06/13 10:52:28;;;;;;;2.68;1.50;;;;;;;19.84;60.87;98587.02;129983;1093;22663;-67
2021/06/13 10:54:58;;;;;;;2.38;1.50;;;;;;;19.83;60.63;98585.40;130032;1093;23485;-67
2021/06/13 10:57:44;;;;;;;2.35;1.20;;;;;;;19.83;60.91;98599.22;130000;1092;23787;-68
2021/06/13 11:00:19;;;;;;;1.60;1.10;;;;;;;19.88;61.41;98604.55;130028;1092;23320;-67
2021/06/13 11:02:58;;;;;;;1.28;0.90;;;;;;;19.97;59.89;98596.14;129819;1093;22552;-67
2021/06/13 11:05:46;;;;;;;1.13;1.10;;;;;;;20.03;59.83;98601.13;130034;1092;22591;-67
2021/06/13 11:08:17;;;;;;;1.80;1.18;;;;;;;20.09;59.70;98588.67;130026;1092;22572;-68
2021/06/13 11:10:49;;;;;;;1.00;0.98;;;;;;;20.15;59.09;98596.77;129848;1093;22564;-68
2021/06/13 11:13:22;;;;;;;1.65;1.00;;;;;;;20.16;57.93;98595.61;129998;1093;23382;-68
2021/06/13 11:15:51;;;;;;;0.98;0.90;;;;;;;20.11;58.26;98596.63;129920;1093;22536;-68
2021/06/13 11:18:20;;;;;;;1.73;1.30;;;;;;;20.08;57.99;98600.08;129793;1093;22565;-67
2021/06/13 11:20:52;;;;;;;4.08;1.63;;;;;;;20.05;56.86;98589.73;130001;1092;23740;-67
2021/06/13 11:23:23;;;;;;;3.90;1.63;;;;;;;20.00;57.35;98581.64;130044;1093;23037;-68
2021/06/13 11:25:54;;;;;;;4.53;2.35;;;;;;;20.02;58.11;98587.64;129871;1093;22701;-67
2021/06/13 11:28:24;;;;;;;6.88;1.53;;;;;;;20.10;57.76;98598.59;129801;1093;22538;-67
2021/06/13 11:31:09;;;;;;;1.60;1.20;;;;;;;20.16;57.80;98596.42;130014;1092;22595;-67
2021/06/13 11:33:39;;;;;;;1.93;1.20;;;;;;;20.21;56.07;98595.37;129940;1093;23104;-68
2021/06/13 11:39:10;;;;;;;1.48;0.90;;;;;;;20.22;57.98;98599.75;130076;1091;22668;-67
2021/06/13 11:41:42;;;;;;;3.90;1.40;;;;;;;20.30;56.49;98609.92;129892;1092;22571;-67
2021/06/13 11:44:20;;;;;;;5.53;2.60;;;;;;;20.32;55.44;98613.16;129993;1092;22634;-68
2021/06/13 11:46:52;;;;;;;44.10;20.13;;;;;;;20.26;55.25;98598.73;130022;1093;22513;-67